sensor_id;sensor_type;location;lat;lon;timestamp;pressure;altitude;pressure_sealevel;temperature;humidity
57050;BME280;42935;50.966;16.992;2022-09-09T00:06:21;101115.05;;;13.32;100.00
57050;BME280;42935;50.966;16.992;2022-09-09T00:12:58;101111.92;;;13.30;100.00
57050;BME280;42935;50.966;16.992;2022-09-09T00:16:19;101116.11;;;13.25;100.00
57050;BME280;42935;50.966;16.992;2022-09-09T00:29:51;101115.16;;;13.11;100.00
57050;BME280;42935;50.966;16.992;2022-09-09T00:33:10;101112.53;;;13.07;100.00
57050;BME280;42935;50.966;16.992;2022-09-09T00:36:24;101112.52;;;13.09;100.00
57050;BME280;42935;50.966;16.992;2022-09-09T00:39:41;101116.48;;;13.09;100.00
57050;BME280;42935;50.966;16.992;2022-09-09T00:56:26;101112.34;;;12.78;100.00
57050;BME280;42935;50.966;16.992;2022-09-09T00:59:48;101113.73;;;12.75;100.00
57050;BME280;42935;50.966;16.992;2022-09-09T01:06:31;101115.33;;;12.65;100.00
57050;BME280;42935;50.966;16.992;2022-09-09T01:13:11;101119.05;;;12.61;100.00
57050;BME280;42935;50.966;16.992;2022-09-09T01:16:24;101119.65;;;12.74;100.00
57050;BME280;42935;50.966;16.992;2022-09-09T01:19:48;101109.61;;;12.69;100.00
57050;BME280;42935;50.966;16.992;2022-09-09T01:23:13;101114.99;;;12.70;100.00
57050;BME280;42935;50.966;16.992;2022-09-09T01:29:49;101126.48;;;12.72;100.00
57050;BME280;42935;50.966;16.992;2022-09-09T01:32:59;101130.97;;;12.73;100.00
57050;BME280;42935;50.966;16.992;2022-09-09T01:39:50;101136.61;;;12.66;100.00
57050;BME280;42935;50.966;16.992;2022-09-09T01:43:00;101133.58;;;12.56;100.00
57050;BME280;42935;50.966;16.992;2022-09-09T01:46:12;101139.63;;;12.63;100.00
57050;BME280;42935;50.966;16.992;2022-09-09T01:49:25;101142.11;;;12.58;100.00
57050;BME280;42935;50.966;16.992;2022-09-09T01:52:36;101144.12;;;12.55;100.00
57050;BME280;42935;50.966;16.992;2022-09-09T02:06:05;101151.13;;;12.28;100.00
57050;BME280;42935;50.966;16.992;2022-09-09T02:09:19;101150.53;;;12.24;100.00
57050;BME280;42935;50.966;16.992;2022-09-09T02:12:33;101149.91;;;12.13;100.00
57050;BME280;42935;50.966;16.992;2022-09-09T02:16:21;101152.73;;;12.15;100.00
57050;BME280;42935;50.966;16.992;2022-09-09T02:19:36;101150.61;;;12.14;100.00
57050;BME280;42935;50.966;16.992;2022-09-09T02:22:50;101154.91;;;12.17;100.00
57050;BME280;42935;50.966;16.992;2022-09-09T02:26:01;101156.81;;;12.09;100.00
57050;BME280;42935;50.966;16.992;2022-09-09T02:29:23;101156.95;;;12.08;100.00
57050;BME280;42935;50.966;16.992;2022-09-09T02:32:36;101161.87;;;12.08;100.00
57050;BME280;42935;50.966;16.992;2022-09-09T02:35:51;101160.29;;;12.10;100.00
57050;BME280;42935;50.966;16.992;2022-09-09T02:39:04;101165.44;;;12.11;100.00
57050;BME280;42935;50.966;16.992;2022-09-09T02:42:17;101169.84;;;11.99;100.00
57050;BME280;42935;50.966;16.992;2022-09-09T02:45:34;101169.80;;;12.00;100.00
57050;BME280;42935;50.966;16.992;2022-09-09T02:48:59;101170.07;;;11.97;100.00
57050;BME280;42935;50.966;16.992;2022-09-09T02:52:15;101169.48;;;11.84;100.00
57050;BME280;42935;50.966;16.992;2022-09-09T02:58:51;101172.28;;;11.80;100.00
57050;BME280;42935;50.966;16.992;2022-09-09T03:02:01;101175.05;;;11.73;100.00
57050;BME280;42935;50.966;16.992;2022-09-09T03:05:15;101169.33;;;11.59;100.00
57050;BME280;42935;50.966;16.992;2022-09-09T03:08:27;101181.83;;;11.62;100.00
57050;BME280;42935;50.966;16.992;2022-09-09T03:11:37;101184.08;;;11.58;100.00
57050;BME280;42935;50.966;16.992;2022-09-09T03:14:47;101181.43;;;11.59;100.00
57050;BME280;42935;50.966;16.992;2022-09-09T03:17:59;101185.11;;;11.54;100.00
57050;BME280;42935;50.966;16.992;2022-09-09T03:21:07;101186.03;;;11.58;100.00
57050;BME280;42935;50.966;16.992;2022-09-09T03:24:17;101188.41;;;11.53;100.00
57050;BME280;42935;50.966;16.992;2022-09-09T03:27:30;101190.31;;;11.51;100.00
57050;BME280;42935;50.966;16.992;2022-09-09T03:30:41;101190.72;;;11.53;100.00
57050;BME280;42935;50.966;16.992;2022-09-09T03:33:51;101184.13;;;11.37;100.00
57050;BME280;42935;50.966;16.992;2022-09-09T03:37:01;101193.83;;;11.35;100.00
57050;BME280;42935;50.966;16.992;2022-09-09T03:40:14;101194.37;;;11.38;100.00
57050;BME280;42935;50.966;16.992;2022-09-09T03:43:26;101194.66;;;11.40;100.00
57050;BME280;42935;50.966;16.992;2022-09-09T03:46:42;101187.34;;;11.30;100.00
57050;BME280;42935;50.966;16.992;2022-09-09T03:49:52;101186.16;;;11.33;100.00
57050;BME280;42935;50.966;16.992;2022-09-09T03:53:04;101196.88;;;11.35;100.00
57050;BME280;42935;50.966;16.992;2022-09-09T03:56:17;101196.09;;;11.28;100.00
57050;BME280;42935;50.966;16.992;2022-09-09T03:59:30;101196.86;;;11.24;100.00
57050;BME280;42935;50.966;16.992;2022-09-09T04:02:40;101201.55;;;11.20;100.00
57050;BME280;42935;50.966;16.992;2022-09-09T04:05:53;101206.89;;;11.25;100.00
57050;BME280;42935;50.966;16.992;2022-09-09T04:09:05;101210.39;;;11.28;100.00
57050;BME280;42935;50.966;16.992;2022-09-09T04:12:21;101213.14;;;11.26;100.00
57050;BME280;42935;50.966;16.992;2022-09-09T04:15:32;101212.20;;;11.23;100.00
57050;BME280;42935;50.966;16.992;2022-09-09T04:18:46;101220.26;;;11.15;100.00
57050;BME280;42935;50.966;16.992;2022-09-09T04:21:58;101213.65;;;11.13;100.00
57050;BME280;42935;50.966;16.992;2022-09-09T04:25:11;101215.30;;;11.06;100.00
57050;BME280;42935;50.966;16.992;2022-09-09T04:28:23;101216.02;;;11.08;100.00
57050;BME280;42935;50.966;16.992;2022-09-09T04:31:36;101220.80;;;11.15;100.00
57050;BME280;42935;50.966;16.992;2022-09-09T04:34:52;101217.42;;;11.14;100.00
57050;BME280;42935;50.966;16.992;2022-09-09T04:38:08;101221.77;;;11.08;100.00
57050;BME280;42935;50.966;16.992;2022-09-09T04:41:20;101223.26;;;11.09;100.00
57050;BME280;42935;50.966;16.992;2022-09-09T04:44:31;101220.16;;;11.19;100.00
57050;BME280;42935;50.966;16.992;2022-09-09T04:47:42;101218.91;;;11.18;100.00
57050;BME280;42935;50.966;16.992;2022-09-09T04:54:13;101222.05;;;11.24;100.00
57050;BME280;42935;50.966;16.992;2022-09-09T04:57:25;101219.70;;;11.23;100.00
57050;BME280;42935;50.966;16.992;2022-09-09T05:00:39;101225.26;;;11.39;100.00
57050;BME280;42935;50.966;16.992;2022-09-09T05:03:51;101218.30;;;11.43;100.00
57050;BME280;42935;50.966;16.992;2022-09-09T05:07:02;101228.59;;;11.55;100.00
57050;BME280;42935;50.966;16.992;2022-09-09T05:10:13;101230.78;;;11.63;100.00
57050;BME280;42935;50.966;16.992;2022-09-09T05:13:27;101234.96;;;11.76;100.00
57050;BME280;42935;50.966;16.992;2022-09-09T05:16:39;101223.63;;;11.79;100.00
57050;BME280;42935;50.966;16.992;2022-09-09T05:19:50;101237.69;;;11.92;100.00
57050;BME280;42935;50.966;16.992;2022-09-09T05:23:02;101239.49;;;12.01;100.00
57050;BME280;42935;50.966;16.992;2022-09-09T05:26:14;101240.79;;;12.13;100.00
57050;BME280;42935;50.966;16.992;2022-09-09T05:29:26;101239.96;;;12.40;100.00
57050;BME280;42935;50.966;16.992;2022-09-09T05:32:38;101240.45;;;12.51;100.00
57050;BME280;42935;50.966;16.992;2022-09-09T05:39:12;101243.84;;;12.72;100.00
57050;BME280;42935;50.966;16.992;2022-09-09T05:42:33;101242.80;;;12.83;100.00
57050;BME280;42935;50.966;16.992;2022-09-09T05:46:14;101237.05;;;12.95;100.00
57050;BME280;42935;50.966;16.992;2022-09-09T05:49:26;101239.67;;;13.15;100.00
57050;BME280;42935;50.966;16.992;2022-09-09T05:52:37;101241.93;;;13.22;100.00
57050;BME280;42935;50.966;16.992;2022-09-09T05:55:47;101246.32;;;13.32;100.00
57050;BME280;42935;50.966;16.992;2022-09-09T05:59:03;101240.48;;;13.45;100.00
57050;BME280;42935;50.966;16.992;2022-09-09T06:02:16;101234.91;;;13.58;100.00
57050;BME280;42935;50.966;16.992;2022-09-09T06:05:28;101235.00;;;13.71;100.00
57050;BME280;42935;50.966;16.992;2022-09-09T06:08:42;101230.45;;;13.82;100.00
57050;BME280;42935;50.966;16.992;2022-09-09T06:12:00;101226.44;;;14.01;100.00
57050;BME280;42935;50.966;16.992;2022-09-09T06:15:10;101227.59;;;14.16;100.00
57050;BME280;42935;50.966;16.992;2022-09-09T06:18:23;101230.16;;;14.28;100.00
57050;BME280;42935;50.966;16.992;2022-09-09T06:21:36;101230.39;;;14.42;100.00
57050;BME280;42935;50.966;16.992;2022-09-09T06:24:47;101227.02;;;14.55;100.00
57050;BME280;42935;50.966;16.992;2022-09-09T06:28:00;101216.47;;;14.66;100.00
57050;BME280;42935;50.966;16.992;2022-09-09T06:31:20;101226.87;;;14.93;100.00
57050;BME280;42935;50.966;16.992;2022-09-09T06:34:33;101230.88;;;15.10;100.00
57050;BME280;42935;50.966;16.992;2022-09-09T06:37:49;101234.87;;;15.28;100.00
57050;BME280;42935;50.966;16.992;2022-09-09T06:41:02;101238.11;;;15.35;100.00
57050;BME280;42935;50.966;16.992;2022-09-09T06:44:16;101230.32;;;15.53;100.00
57050;BME280;42935;50.966;16.992;2022-09-09T06:47:28;101230.55;;;15.66;100.00
57050;BME280;42935;50.966;16.992;2022-09-09T06:50:40;101237.59;;;15.70;100.00
57050;BME280;42935;50.966;16.992;2022-09-09T06:53:57;101238.87;;;15.79;100.00
57050;BME280;42935;50.966;16.992;2022-09-09T06:57:10;101239.99;;;15.91;100.00
57050;BME280;42935;50.966;16.992;2022-09-09T07:00:22;101241.20;;;15.99;100.00
57050;BME280;42935;50.966;16.992;2022-09-09T07:03:35;101239.36;;;16.11;100.00
57050;BME280;42935;50.966;16.992;2022-09-09T07:06:47;101238.06;;;16.40;100.00
57050;BME280;42935;50.966;16.992;2022-09-09T07:09:57;101237.78;;;16.63;100.00
57050;BME280;42935;50.966;16.992;2022-09-09T07:13:09;101240.03;;;16.65;100.00
57050;BME280;42935;50.966;16.992;2022-09-09T07:16:21;101243.61;;;16.74;100.00
57050;BME280;42935;50.966;16.992;2022-09-09T07:19:36;101235.83;;;16.93;100.00
57050;BME280;42935;50.966;16.992;2022-09-09T07:22:47;101232.44;;;17.07;100.00
57050;BME280;42935;50.966;16.992;2022-09-09T07:25:59;101236.56;;;17.31;100.00
57050;BME280;42935;50.966;16.992;2022-09-09T07:29:11;101241.28;;;17.53;100.00
57050;BME280;42935;50.966;16.992;2022-09-09T07:32:25;101244.15;;;17.55;100.00
57050;BME280;42935;50.966;16.992;2022-09-09T07:35:37;101250.26;;;17.59;100.00
57050;BME280;42935;50.966;16.992;2022-09-09T07:38:53;101248.79;;;17.49;100.00
57050;BME280;42935;50.966;16.992;2022-09-09T07:42:06;101247.88;;;17.40;100.00
57050;BME280;42935;50.966;16.992;2022-09-09T07:45:18;101261.63;;;17.68;100.00
57050;BME280;42935;50.966;16.992;2022-09-09T07:48:29;101263.80;;;17.91;100.00
57050;BME280;42935;50.966;16.992;2022-09-09T07:51:45;101261.02;;;18.16;100.00
57050;BME280;42935;50.966;16.992;2022-09-09T07:54:56;101252.51;;;18.36;100.00
57050;BME280;42935;50.966;16.992;2022-09-09T07:58:08;101257.68;;;18.60;100.00
57050;BME280;42935;50.966;16.992;2022-09-09T08:01:24;101261.44;;;18.80;100.00
57050;BME280;42935;50.966;16.992;2022-09-09T08:04:37;101260.79;;;18.77;100.00
57050;BME280;42935;50.966;16.992;2022-09-09T08:07:48;101259.57;;;18.76;100.00
57050;BME280;42935;50.966;16.992;2022-09-09T08:11:06;101255.59;;;18.91;100.00
57050;BME280;42935;50.966;16.992;2022-09-09T08:14:19;101249.23;;;18.69;100.00
57050;BME280;42935;50.966;16.992;2022-09-09T08:17:29;101249.79;;;18.97;100.00
57050;BME280;42935;50.966;16.992;2022-09-09T08:20:39;101254.13;;;19.05;100.00
57050;BME280;42935;50.966;16.992;2022-09-09T08:23:52;101246.48;;;19.28;100.00
57050;BME280;42935;50.966;16.992;2022-09-09T08:27:03;101243.16;;;19.46;100.00
57050;BME280;42935;50.966;16.992;2022-09-09T08:30:12;101239.38;;;19.42;100.00
57050;BME280;42935;50.966;16.992;2022-09-09T08:33:22;101243.85;;;19.59;100.00
57050;BME280;42935;50.966;16.992;2022-09-09T08:36:40;101242.49;;;19.89;100.00
57050;BME280;42935;50.966;16.992;2022-09-09T08:39:51;101244.80;;;20.04;100.00
57050;BME280;42935;50.966;16.992;2022-09-09T08:43:03;101247.02;;;20.34;100.00
57050;BME280;42935;50.966;16.992;2022-09-09T08:46:26;101246.58;;;20.38;100.00
57050;BME280;42935;50.966;16.992;2022-09-09T08:50:07;101249.08;;;20.09;100.00
57050;BME280;42935;50.966;16.992;2022-09-09T08:56:23;101260.68;;;20.53;100.00
57050;BME280;42935;50.966;16.992;2022-09-09T08:59:34;101263.91;;;20.24;100.00
57050;BME280;42935;50.966;16.992;2022-09-09T09:06:18;101261.47;;;20.64;100.00
57050;BME280;42935;50.966;16.992;2022-09-09T09:09:40;101259.38;;;20.67;100.00
57050;BME280;42935;50.966;16.992;2022-09-09T09:12:54;101256.17;;;20.57;93.92
57050;BME280;42935;50.966;16.992;2022-09-09T09:19:28;101244.73;;;20.86;98.95
57050;BME280;42935;50.966;16.992;2022-09-09T09:22:49;101254.15;;;21.02;100.00
57050;BME280;42935;50.966;16.992;2022-09-09T09:26:01;101259.51;;;20.98;99.67
57050;BME280;42935;50.966;16.992;2022-09-09T09:29:21;101256.86;;;21.21;100.00
57050;BME280;42935;50.966;16.992;2022-09-09T09:32:34;101254.56;;;21.07;96.20
57050;BME280;42935;50.966;16.992;2022-09-09T09:35:48;101258.26;;;20.51;94.20
57050;BME280;42935;50.966;16.992;2022-09-09T09:39:01;101259.52;;;20.57;100.00
57050;BME280;42935;50.966;16.992;2022-09-09T09:42:18;101255.32;;;20.66;99.62
57050;BME280;42935;50.966;16.992;2022-09-09T09:49:02;101260.63;;;20.73;100.00
57050;BME280;42935;50.966;16.992;2022-09-09T09:52:16;101261.98;;;20.95;100.00
57050;BME280;42935;50.966;16.992;2022-09-09T09:55:33;101260.25;;;21.18;100.00
57050;BME280;42935;50.966;16.992;2022-09-09T09:58:51;101258.39;;;21.15;99.96
57050;BME280;42935;50.966;16.992;2022-09-09T10:05:29;101252.23;;;21.83;99.59
57050;BME280;42935;50.966;16.992;2022-09-09T10:08:46;101254.10;;;22.32;94.31
57050;BME280;42935;50.966;16.992;2022-09-09T10:15:29;101245.03;;;22.49;88.60
57050;BME280;42935;50.966;16.992;2022-09-09T10:39:04;101242.17;;;22.49;77.92
57050;BME280;42935;50.966;16.992;2022-09-09T10:42:16;101240.77;;;22.24;81.75
57050;BME280;42935;50.966;16.992;2022-09-09T10:45:39;101248.15;;;21.83;88.08
57050;BME280;42935;50.966;16.992;2022-09-09T10:55:42;101237.09;;;22.38;84.19
57050;BME280;42935;50.966;16.992;2022-09-09T10:59:04;101235.18;;;22.53;91.43
57050;BME280;42935;50.966;16.992;2022-09-09T11:02:26;101236.02;;;22.73;80.88
57050;BME280;42935;50.966;16.992;2022-09-09T11:05:42;101233.17;;;22.96;88.78
57050;BME280;42935;50.966;16.992;2022-09-09T11:08:54;101236.20;;;23.17;87.33
57050;BME280;42935;50.966;16.992;2022-09-09T11:12:15;101236.33;;;22.87;80.02
57050;BME280;42935;50.966;16.992;2022-09-09T11:15:43;101197.65;;;22.96;78.55
57050;BME280;42935;50.966;16.992;2022-09-09T11:26:14;101235.05;;;23.79;82.49
57050;BME280;42935;50.966;16.992;2022-09-09T11:43:12;101227.61;;;24.11;74.62
57050;BME280;42935;50.966;16.992;2022-09-09T11:46:33;101224.57;;;24.44;73.91
57050;BME280;42935;50.966;16.992;2022-09-09T11:49:47;101222.01;;;24.59;75.92
57050;BME280;42935;50.966;16.992;2022-09-09T11:53:04;101225.99;;;24.44;71.07
57050;BME280;42935;50.966;16.992;2022-09-09T11:56:46;101223.73;;;24.64;73.52
57050;BME280;42935;50.966;16.992;2022-09-09T11:59:56;101222.84;;;24.53;69.35
57050;BME280;42935;50.966;16.992;2022-09-09T12:06:53;101207.26;;;24.87;66.56
57050;BME280;42935;50.966;16.992;2022-09-09T12:13:35;101209.56;;;25.32;57.91
57050;BME280;42935;50.966;16.992;2022-09-09T12:16:43;101211.12;;;25.50;60.62
57050;BME280;42935;50.966;16.992;2022-09-09T12:23:32;101204.51;;;25.19;55.67
57050;BME280;42935;50.966;16.992;2022-09-09T12:30:09;101217.04;;;24.48;58.15
57050;BME280;42935;50.966;16.992;2022-09-09T12:33:21;101212.87;;;25.10;56.67
57050;BME280;42935;50.966;16.992;2022-09-09T12:36:36;101200.64;;;25.18;57.14
57050;BME280;42935;50.966;16.992;2022-09-09T12:40:00;101201.72;;;25.58;53.91
57050;BME280;42935;50.966;16.992;2022-09-09T12:43:18;101213.80;;;24.85;53.96
57050;BME280;42935;50.966;16.992;2022-09-09T12:49:53;101216.36;;;24.29;56.60
57050;BME280;42935;50.966;16.992;2022-09-09T12:53:15;101203.88;;;24.99;57.03
57050;BME280;42935;50.966;16.992;2022-09-09T12:56:28;101188.88;;;25.51;56.45
57050;BME280;42935;50.966;16.992;2022-09-09T12:59:39;101198.73;;;25.59;58.48
57050;BME280;42935;50.966;16.992;2022-09-09T13:02:59;101200.80;;;25.73;60.41
57050;BME280;42935;50.966;16.992;2022-09-09T13:06:17;101195.58;;;25.42;57.54
57050;BME280;42935;50.966;16.992;2022-09-09T13:09:27;101187.52;;;24.64;58.54
57050;BME280;42935;50.966;16.992;2022-09-09T13:12:41;101192.23;;;25.97;56.30
57050;BME280;42935;50.966;16.992;2022-09-09T13:15:56;101180.26;;;25.48;60.93
57050;BME280;42935;50.966;16.992;2022-09-09T13:19:16;101174.84;;;25.82;60.07
57050;BME280;42935;50.966;16.992;2022-09-09T13:22:33;101171.45;;;25.58;57.34
57050;BME280;42935;50.966;16.992;2022-09-09T13:25:53;101175.92;;;24.66;59.05
57050;BME280;42935;50.966;16.992;2022-09-09T13:29:18;101186.71;;;24.84;55.81
57050;BME280;42935;50.966;16.992;2022-09-09T13:32:37;101180.55;;;25.25;58.70
57050;BME280;42935;50.966;16.992;2022-09-09T13:39:18;101174.65;;;26.37;56.79
57050;BME280;42935;50.966;16.992;2022-09-09T13:42:29;101173.47;;;25.88;57.91
57050;BME280;42935;50.966;16.992;2022-09-09T13:49:00;101148.92;;;26.24;56.87
57050;BME280;42935;50.966;16.992;2022-09-09T13:52:16;101142.28;;;26.16;55.08
57050;BME280;42935;50.966;16.992;2022-09-09T13:55:31;101144.42;;;27.17;52.92
57050;BME280;42935;50.966;16.992;2022-09-09T13:58:42;101151.43;;;26.71;54.74
57050;BME280;42935;50.966;16.992;2022-09-09T14:01:55;101152.40;;;25.83;53.34
57050;BME280;42935;50.966;16.992;2022-09-09T14:05:06;101147.59;;;26.39;57.92
57050;BME280;42935;50.966;16.992;2022-09-09T14:08:23;101142.68;;;26.00;58.03
57050;BME280;42935;50.966;16.992;2022-09-09T14:11:34;101151.34;;;25.79;60.25
57050;BME280;42935;50.966;16.992;2022-09-09T14:14:48;101159.43;;;26.30;58.08
57050;BME280;42935;50.966;16.992;2022-09-09T14:18:01;101166.91;;;25.89;55.27
57050;BME280;42935;50.966;16.992;2022-09-09T14:21:11;101160.67;;;25.17;55.84
57050;BME280;42935;50.966;16.992;2022-09-09T14:24:23;101161.74;;;26.03;55.79
57050;BME280;42935;50.966;16.992;2022-09-09T14:27:39;101157.80;;;25.15;60.08
57050;BME280;42935;50.966;16.992;2022-09-09T14:30:51;101153.53;;;25.65;64.70
57050;BME280;42935;50.966;16.992;2022-09-09T14:34:01;101154.68;;;24.97;58.26
57050;BME280;42935;50.966;16.992;2022-09-09T14:37:12;101151.89;;;25.40;61.91
57050;BME280;42935;50.966;16.992;2022-09-09T14:40:26;101148.25;;;25.07;60.44
57050;BME280;42935;50.966;16.992;2022-09-09T14:43:40;101153.73;;;25.01;59.90
57050;BME280;42935;50.966;16.992;2022-09-09T14:46:51;101141.04;;;24.39;63.77
57050;BME280;42935;50.966;16.992;2022-09-09T14:49:59;101143.02;;;24.31;64.60
57050;BME280;42935;50.966;16.992;2022-09-09T14:53:12;101138.60;;;24.38;63.83
57050;BME280;42935;50.966;16.992;2022-09-09T14:56:31;101140.96;;;24.21;66.24
57050;BME280;42935;50.966;16.992;2022-09-09T14:59:46;101140.30;;;24.12;68.32
57050;BME280;42935;50.966;16.992;2022-09-09T15:02:59;101131.63;;;23.96;68.45
57050;BME280;42935;50.966;16.992;2022-09-09T15:06:11;101130.66;;;23.85;68.93
57050;BME280;42935;50.966;16.992;2022-09-09T15:09:22;101131.10;;;23.78;72.20
57050;BME280;42935;50.966;16.992;2022-09-09T15:12:34;101136.95;;;23.57;77.87
57050;BME280;42935;50.966;16.992;2022-09-09T15:15:41;101136.39;;;23.67;73.80
57050;BME280;42935;50.966;16.992;2022-09-09T15:18:56;101134.35;;;23.98;71.56
57050;BME280;42935;50.966;16.992;2022-09-09T15:22:08;101131.59;;;24.01;69.42
57050;BME280;42935;50.966;16.992;2022-09-09T15:25:19;101123.79;;;23.66;71.58
57050;BME280;42935;50.966;16.992;2022-09-09T15:28:33;101132.94;;;23.45;76.43
57050;BME280;42935;50.966;16.992;2022-09-09T15:31:47;101129.73;;;23.54;76.72
57050;BME280;42935;50.966;16.992;2022-09-09T15:35:00;101124.75;;;23.47;76.67
57050;BME280;42935;50.966;16.992;2022-09-09T15:38:13;101137.33;;;23.34;73.93
57050;BME280;42935;50.966;16.992;2022-09-09T15:41:26;101137.86;;;23.16;77.21
57050;BME280;42935;50.966;16.992;2022-09-09T15:44:40;101134.80;;;23.14;78.61
57050;BME280;42935;50.966;16.992;2022-09-09T15:47:52;101130.23;;;23.18;76.59
57050;BME280;42935;50.966;16.992;2022-09-09T15:51:04;101125.95;;;23.16;76.25
57050;BME280;42935;50.966;16.992;2022-09-09T15:54:16;101132.39;;;23.09;76.21
57050;BME280;42935;50.966;16.992;2022-09-09T15:57:30;101137.70;;;22.33;82.60
57050;BME280;42935;50.966;16.992;2022-09-09T16:00:41;101128.13;;;22.27;82.41
57050;BME280;42935;50.966;16.992;2022-09-09T16:03:52;101131.26;;;22.28;86.08
57050;BME280;42935;50.966;16.992;2022-09-09T16:07:05;101131.02;;;22.14;87.22
57050;BME280;42935;50.966;16.992;2022-09-09T16:10:16;101134.34;;;21.51;92.22
57050;BME280;42935;50.966;16.992;2022-09-09T16:13:26;101143.50;;;21.39;94.92
57050;BME280;42935;50.966;16.992;2022-09-09T16:16:35;101138.22;;;21.42;95.93
57050;BME280;42935;50.966;16.992;2022-09-09T16:19:46;101150.42;;;21.61;93.85
57050;BME280;42935;50.966;16.992;2022-09-09T16:22:56;101146.90;;;21.69;95.19
57050;BME280;42935;50.966;16.992;2022-09-09T16:26:10;101147.16;;;21.18;100.00
57050;BME280;42935;50.966;16.992;2022-09-09T16:29:23;101147.63;;;21.45;96.90
57050;BME280;42935;50.966;16.992;2022-09-09T16:32:38;101145.23;;;21.53;95.83
57050;BME280;42935;50.966;16.992;2022-09-09T16:35:48;101151.94;;;21.39;96.93
57050;BME280;42935;50.966;16.992;2022-09-09T16:39:00;101156.99;;;21.17;99.79
57050;BME280;42935;50.966;16.992;2022-09-09T16:42:13;101158.20;;;21.21;100.00
57050;BME280;42935;50.966;16.992;2022-09-09T16:45:25;101164.35;;;21.10;100.00
57050;BME280;42935;50.966;16.992;2022-09-09T16:48:36;101162.69;;;21.03;100.00
57050;BME280;42935;50.966;16.992;2022-09-09T16:52:15;101162.76;;;20.84;100.00
57050;BME280;42935;50.966;16.992;2022-09-09T16:55:57;101162.60;;;20.28;100.00
57050;BME280;42935;50.966;16.992;2022-09-09T16:59:35;101160.85;;;20.27;100.00
57050;BME280;42935;50.966;16.992;2022-09-09T17:03:16;101156.98;;;20.18;100.00
57050;BME280;42935;50.966;16.992;2022-09-09T17:06:25;101156.05;;;20.03;100.00
57050;BME280;42935;50.966;16.992;2022-09-09T17:10:05;101162.05;;;19.99;100.00
57050;BME280;42935;50.966;16.992;2022-09-09T17:13:17;101157.60;;;19.96;100.00
57050;BME280;42935;50.966;16.992;2022-09-09T17:16:32;101174.91;;;19.90;100.00
57050;BME280;42935;50.966;16.992;2022-09-09T17:19:42;101179.30;;;19.88;100.00
57050;BME280;42935;50.966;16.992;2022-09-09T17:22:54;101179.43;;;19.76;100.00
57050;BME280;42935;50.966;16.992;2022-09-09T17:26:08;101176.63;;;19.64;100.00
57050;BME280;42935;50.966;16.992;2022-09-09T17:29:19;101176.09;;;19.68;100.00
57050;BME280;42935;50.966;16.992;2022-09-09T17:32:34;101172.45;;;19.61;100.00
57050;BME280;42935;50.966;16.992;2022-09-09T17:35:45;101169.40;;;19.41;100.00
57050;BME280;42935;50.966;16.992;2022-09-09T17:39:03;101169.76;;;19.47;100.00
57050;BME280;42935;50.966;16.992;2022-09-09T17:42:15;101176.57;;;19.41;100.00
57050;BME280;42935;50.966;16.992;2022-09-09T17:45:25;101181.24;;;19.28;100.00
57050;BME280;42935;50.966;16.992;2022-09-09T17:48:43;101180.30;;;19.32;100.00
57050;BME280;42935;50.966;16.992;2022-09-09T17:51:54;101182.50;;;19.18;100.00
57050;BME280;42935;50.966;16.992;2022-09-09T17:55:06;101185.20;;;19.14;100.00
57050;BME280;42935;50.966;16.992;2022-09-09T17:58:18;101188.05;;;19.10;100.00
57050;BME280;42935;50.966;16.992;2022-09-09T18:01:35;101187.16;;;19.03;100.00
57050;BME280;42935;50.966;16.992;2022-09-09T18:04:47;101189.45;;;19.04;100.00
57050;BME280;42935;50.966;16.992;2022-09-09T18:07:53;101192.28;;;19.08;100.00
57050;BME280;42935;50.966;16.992;2022-09-09T18:11:00;101191.17;;;18.88;100.00
57050;BME280;42935;50.966;16.992;2022-09-09T18:14:15;101192.70;;;18.88;100.00
57050;BME280;42935;50.966;16.992;2022-09-09T18:17:27;101195.53;;;18.75;100.00
57050;BME280;42935;50.966;16.992;2022-09-09T18:20:35;101197.38;;;18.77;100.00
57050;BME280;42935;50.966;16.992;2022-09-09T18:23:45;101194.68;;;18.81;100.00
57050;BME280;42935;50.966;16.992;2022-09-09T18:27:00;101198.42;;;18.76;100.00
57050;BME280;42935;50.966;16.992;2022-09-09T18:30:09;101194.55;;;18.69;100.00
57050;BME280;42935;50.966;16.992;2022-09-09T18:33:18;101197.85;;;18.69;100.00
57050;BME280;42935;50.966;16.992;2022-09-09T18:36:31;101196.34;;;18.66;100.00
57050;BME280;42935;50.966;16.992;2022-09-09T18:39:43;101199.20;;;18.62;100.00
57050;BME280;42935;50.966;16.992;2022-09-09T18:42:51;101200.45;;;18.54;100.00
57050;BME280;42935;50.966;16.992;2022-09-09T18:46:07;101203.53;;;18.35;100.00
57050;BME280;42935;50.966;16.992;2022-09-09T18:49:19;101194.64;;;18.37;100.00
57050;BME280;42935;50.966;16.992;2022-09-09T18:52:39;101199.51;;;18.39;100.00
57050;BME280;42935;50.966;16.992;2022-09-09T18:55:59;101201.89;;;18.33;100.00
57050;BME280;42935;50.966;16.992;2022-09-09T18:59:20;101195.67;;;18.26;100.00
57050;BME280;42935;50.966;16.992;2022-09-09T19:02:31;101206.38;;;18.30;100.00
57050;BME280;42935;50.966;16.992;2022-09-09T19:05:41;101210.36;;;18.20;100.00
57050;BME280;42935;50.966;16.992;2022-09-09T19:08:53;101207.35;;;18.12;100.00
57050;BME280;42935;50.966;16.992;2022-09-09T19:12:04;101213.67;;;18.14;100.00